Merrickville, Canada
Current Conditions -  °F | °C
As of 11:00 AM on Monday 24 Nov 2014 (Local Time) from CYOW Reporting Station
Overcast Overcast  
Wind Chill: 57°   Ceiling: 3800
Heat Index: 57°   Visibility: 15mi
Dew Point: 54°   Wind: 15mph
Humidity: 88%   Direction: 180°S
Pressure: 29.28"   Gusts: 24mph
Location:  44.92°N, 75.83°W
Report Text: CYOW 241600Z 18013G21KT 15SM FEW015 OVC038 14/12 A2928 RMK SF1SC8 SF TR SLP916 DENSITY ALT 1100FT
Loading
Personal Weather Stations






























Interactive Weather Map New forecast layout! Learn more

10-Day Weather Forecast

Advertisements
Track Severe Weather on mobile